Time;durP1;ratioP1;P1;durP2;ratioP2;P2;SDS_P1;SDS_P2;PMS_P1;PMS_P2;Temp;Humidity;BMP_temperature;BMP_pressure;BME280_temperature;BME280_humidity;BME280_pressure;Samples;Min_cycle;Max_cycle;Signal;HPM_P1;HPM_P2
2022/05/14 00:01:06;;;;;;;13.03;5.37;;;12.30;78.60;;;;;;5037268;28;20297;-89
2022/05/14 00:03:34;;;;;;;14.03;4.00;;;12.20;78.70;;;;;;5037326;28;20183;-88
2022/05/14 00:06:03;;;;;;;11.10;5.27;;;12.20;78.70;;;;;;5037036;28;20186;-88
2022/05/14 00:08:30;;;;;;;16.17;5.03;;;12.30;78.50;;;;;;5037811;28;20190;-89
2022/05/14 00:13:52;;;;;;;11.23;5.03;;;12.20;79.10;;;;;;5055188;28;20164;-89
2022/05/14 00:16:19;;;;;;;12.73;4.87;;;12.10;79.20;;;;;;5054575;28;20176;-89
2022/05/14 00:18:45;;;;;;;13.67;4.90;;;12.10;79.40;;;;;;5037978;28;20195;-89
2022/05/14 00:21:12;;;;;;;12.07;5.53;;;12.10;79.60;;;;;;5054586;28;20188;-89
2022/05/14 00:23:37;;;;;;;17.67;5.20;;;12.00;79.60;;;;;;5036895;28;20180;-88
2022/05/14 00:26:03;;;;;;;18.97;5.10;;;12.00;79.50;;;;;;5036749;28;20172;-88
2022/05/14 00:28:29;;;;;;;14.07;5.10;;;12.00;79.90;;;;;;5036831;28;20172;-89
2022/05/14 00:30:55;;;;;;;15.57;5.90;;;12.00;80.00;;;;;;5037115;28;20200;-90
2022/05/14 00:33:21;;;;;;;20.50;5.90;;;12.00;80.10;;;;;;5036652;28;20287;-88
2022/05/14 00:35:46;;;;;;;12.90;5.13;;;12.00;80.20;;;;;;5036782;28;20199;-88
2022/05/14 00:38:13;;;;;;;18.37;5.33;;;12.00;80.30;;;;;;5036700;28;20169;-89
2022/05/14 00:40:42;;;;;;;14.17;5.57;;;12.00;80.40;;;;;;5036545;28;20188;-89
2022/05/14 00:43:09;;;;;;;16.80;5.80;;;12.00;80.90;;;;;;5036586;28;20556;-89
2022/05/14 00:45:39;;;;;;;14.27;6.40;;;12.00;80.60;;;;;;5053188;28;20186;-89
2022/05/14 00:48:05;;;;;;;14.07;5.57;;;12.00;80.60;;;;;;5053145;28;20175;-89
2022/05/14 00:50:39;;;;;;;17.43;6.33;;;11.90;80.70;;;;;;5036307;28;20212;-89
2022/05/14 00:53:13;;;;;;;19.50;6.37;;;11.90;80.90;;;;;;5036260;28;20201;-88
2022/05/14 00:55:40;;;;;;;16.23;6.00;;;11.90;81.20;;;;;;5036260;28;20156;-88
2022/05/14 00:58:08;;;;;;;13.93;6.17;;;11.90;81.40;;;;;;5036253;28;20241;-88
2022/05/14 01:00:34;;;;;;;10.60;5.57;;;11.90;81.20;;;;;;5036114;28;20196;-89
2022/05/14 01:03:00;;;;;;;18.93;6.17;;;11.90;81.10;;;;;;5036279;28;20267;-89
2022/05/14 01:05:26;;;;;;;13.40;5.80;;;11.80;81.10;;;;;;5036073;28;20208;-88
2022/05/14 01:07:55;;;;;;;18.67;5.93;;;11.80;81.30;;;;;;5036104;28;20553;-89
2022/05/14 01:10:25;;;;;;;26.50;7.03;;;11.80;81.70;;;;;;5035891;28;20682;-88
2022/05/14 01:12:55;;;;;;;18.63;6.40;;;11.80;81.90;;;;;;5035798;28;20227;-89
2022/05/14 01:15:24;;;;;;;23.00;7.27;;;11.70;81.90;;;;;;5036208;28;20173;-89
2022/05/14 01:17:49;;;;;;;19.60;6.57;;;11.70;82.20;;;;;;5036141;28;20184;-89
2022/05/14 01:20:16;;;;;;;15.90;6.33;;;11.70;82.50;;;;;;5053482;28;20198;-89
2022/05/14 01:23:19;;;;;;;15.40;6.03;;;11.70;82.50;;;;;;5035770;28;20234;-88
2022/05/14 01:26:28;;;;;;;23.50;6.63;;;11.80;82.40;;;;;;5053685;28;20252;-89
2022/05/14 01:29:13;;;;;;;23.70;7.10;;;11.90;82.00;;;;;;5051955;28;20547;-89
2022/05/14 01:31:39;;;;;;;20.37;7.00;;;11.80;82.50;;;;;;5035570;28;20203;-88
2022/05/14 01:34:08;;;;;;;19.77;6.93;;;11.80;82.50;;;;;;5035586;28;20174;-89
2022/05/14 01:36:36;;;;;;;17.57;6.03;;;11.90;82.80;;;;;;5035747;28;20259;-88
2022/05/14 01:39:04;;;;;;;16.97;6.37;;;11.90;82.70;;;;;;5035475;28;20548;-88
2022/05/14 01:41:29;;;;;;;20.47;7.03;;;11.90;82.70;;;;;;5035497;28;20669;-88
2022/05/14 01:43:55;;;;;;;17.97;6.67;;;11.90;82.90;;;;;;5053309;28;20174;-89
2022/05/14 01:46:21;;;;;;;15.10;7.23;;;11.90;82.90;;;;;;5035432;28;20649;-88
2022/05/14 01:48:48;;;;;;;19.33;6.60;;;11.90;83.10;;;;;;5053290;28;20174;-89
2022/05/14 01:51:14;;;;;;;18.37;6.43;;;11.80;83.10;;;;;;5035304;28;20215;-89
2022/05/14 01:53:40;;;;;;;24.57;7.37;;;11.90;83.10;;;;;;5053775;28;20650;-89
2022/05/14 01:56:06;;;;;;;18.50;6.83;;;11.90;83.00;;;;;;5036246;28;20180;-88
2022/05/14 01:58:37;;;;;;;18.47;7.37;;;11.80;83.40;;;;;;5036023;28;20187;-89
2022/05/14 02:01:22;;;;;;;18.50;6.83;;;11.80;83.30;;;;;;5036870;28;20570;-89
2022/05/14 02:03:54;;;;;;;25.27;8.47;;;11.80;83.50;;;;;;5036422;28;20183;-89
2022/05/14 02:06:21;;;;;;;19.73;6.87;;;11.80;83.70;;;;;;5036419;28;20523;-88
2022/05/14 02:08:46;;;;;;;24.90;6.97;;;11.80;84.10;;;;;;5036309;28;20175;-88
2022/05/14 02:11:13;;;;;;;12.90;6.20;;;11.80;84.00;;;;;;5052707;28;20282;-89
2022/05/14 02:13:40;;;;;;;15.93;6.30;;;11.90;84.00;;;;;;5035918;28;20292;-88
2022/05/14 02:16:06;;;;;;;13.67;5.87;;;11.90;83.90;;;;;;5035634;28;20176;-88
2022/05/14 02:18:32;;;;;;;17.43;6.43;;;11.90;84.00;;;;;;5053691;28;20267;-89
2022/05/14 02:20:58;;;;;;;20.70;7.37;;;11.90;83.90;;;;;;5052314;28;20577;-88
2022/05/14 02:23:24;;;;;;;15.33;7.27;;;11.90;84.20;;;;;;5035950;28;20275;-88
2022/05/14 02:25:50;;;;;;;21.37;7.00;;;11.90;84.10;;;;;;5035602;28;20176;-88
2022/05/14 02:28:16;;;;;;;25.43;7.10;;;11.90;84.30;;;;;;5035689;28;20716;-88
2022/05/14 02:30:42;;;;;;;21.77;7.57;;;11.80;84.60;;;;;;5035795;28;20222;-89
2022/05/14 02:33:08;;;;;;;13.37;6.03;;;11.90;84.60;;;;;;5035953;28;20578;-88
2022/05/14 02:35:35;;;;;;;19.93;7.23;;;11.80;84.80;;;;;;5035621;28;20172;-89
2022/05/14 02:38:00;;;;;;;22.80;7.50;;;11.80;85.00;;;;;;5035572;28;20180;-87
2022/05/14 02:40:26;;;;;;;12.80;5.93;;;11.80;84.80;;;;;;5036666;28;20192;-88
2022/05/14 02:42:52;;;;;;;15.97;8.33;;;11.80;84.80;;;;;;5039360;28;20182;-88
2022/05/14 02:45:18;;;;;;;16.87;7.43;;;11.80;84.70;;;;;;5039610;28;20263;-89
2022/05/14 02:47:43;;;;;;;19.57;7.13;;;11.80;85.00;;;;;;5039187;28;20176;-89
2022/05/14 02:50:10;;;;;;;20.90;7.90;;;11.70;85.10;;;;;;5039389;28;20234;-89
2022/05/14 02:52:36;;;;;;;15.63;7.20;;;11.70;85.40;;;;;;5057140;28;20554;-89
2022/05/14 02:55:03;;;;;;;13.83;6.50;;;11.60;85.50;;;;;;5039531;28;20258;-88
2022/05/14 02:57:28;;;;;;;22.10;7.97;;;11.70;85.20;;;;;;5039293;28;20172;-88
2022/05/14 02:59:54;;;;;;;20.77;7.43;;;11.60;85.40;;;;;;5040354;28;20627;-88
2022/05/14 03:02:20;;;;;;;19.90;7.93;;;11.50;85.70;;;;;;5040944;28;20275;-88
2022/05/14 03:04:48;;;;;;;22.00;7.63;;;11.50;85.80;;;;;;5038862;28;20568;-89
2022/05/14 03:07:15;;;;;;;16.90;8.43;;;11.40;86.10;;;;;;5039262;28;20172;-88
2022/05/14 03:09:42;;;;;;;20.93;7.80;;;11.40;86.20;;;;;;5038930;28;20255;-88
2022/05/14 03:12:10;;;;;;;19.73;7.83;;;11.40;86.30;;;;;;5039382;28;20211;-89
2022/05/14 03:14:36;;;;;;;23.90;8.30;;;11.30;86.50;;;;;;5055498;28;20645;-88
2022/05/14 03:17:02;;;;;;;20.07;7.83;;;11.30;86.50;;;;;;5055297;28;20172;-89
2022/05/14 03:19:28;;;;;;;21.43;8.43;;;11.30;86.40;;;;;;5039236;28;20172;-89
2022/05/14 03:21:54;;;;;;;27.53;8.90;;;11.30;86.60;;;;;;5039015;28;20215;-89
2022/05/14 03:24:19;;;;;;;17.20;8.57;;;11.30;86.60;;;;;;5056422;28;20230;-88
2022/05/14 03:26:46;;;;;;;21.03;9.23;;;11.30;86.90;;;;;;5038592;28;20212;-87
2022/05/14 03:29:12;;;;;;;20.93;8.40;;;11.20;86.90;;;;;;5038685;28;20183;-88
2022/05/14 03:31:40;;;;;;;31.27;9.93;;;11.30;86.90;;;;;;5056560;28;20271;-88
2022/05/14 03:34:06;;;;;;;28.23;9.13;;;11.20;86.80;;;;;;5038480;28;20197;-88
2022/05/14 03:36:33;;;;;;;17.43;8.77;;;11.20;86.70;;;;;;5038752;28;20172;-89
2022/05/14 03:38:58;;;;;;;18.73;7.90;;;11.20;86.80;;;;;;5038346;28;20207;-88
2022/05/14 03:41:24;;;;;;;12.90;7.30;;;11.20;87.00;;;;;;5056068;28;20188;-89
2022/05/14 03:43:50;;;;;;;22.90;8.60;;;11.20;87.20;;;;;;5038241;28;20176;-88
2022/05/14 03:46:17;;;;;;;22.50;9.53;;;11.20;86.90;;;;;;5038156;28;20225;-88
2022/05/14 03:48:43;;;;;;;24.20;9.07;;;11.20;87.00;;;;;;5056367;28;20285;-88
2022/05/14 03:51:08;;;;;;;22.73;8.47;;;11.20;87.00;;;;;;5055895;28;20693;-88
2022/05/14 03:53:36;;;;;;;23.77;8.60;;;11.00;87.10;;;;;;5056520;28;20211;-89
2022/05/14 03:56:02;;;;;;;17.83;7.97;;;11.00;87.20;;;;;;5039053;28;20199;-88
2022/05/14 03:58:28;;;;;;;26.37;10.67;;;11.00;87.50;;;;;;5037927;28;20176;-88
2022/05/14 04:00:54;;;;;;;19.27;8.40;;;11.00;87.60;;;;;;5037894;28;20202;-88
2022/05/14 04:03:20;;;;;;;18.17;8.40;;;11.10;87.80;;;;;;5038782;28;20263;-88
2022/05/14 04:05:46;;;;;;;25.97;10.30;;;11.10;87.80;;;;;;5037749;28;20638;-88
2022/05/14 04:08:12;;;;;;;20.47;8.10;;;11.20;87.80;;;;;;5037671;28;20195;-88
2022/05/14 04:10:38;;;;;;;19.50;7.73;;;11.20;87.90;;;;;;5055372;28;20203;-88
2022/05/14 04:13:03;;;;;;;20.37;8.10;;;11.20;88.00;;;;;;5037586;28;20685;-87
2022/05/14 04:15:29;;;;;;;19.53;8.43;;;11.20;87.90;;;;;;5055511;28;20183;-88
2022/05/14 04:17:55;;;;;;;18.63;7.57;;;11.30;87.80;;;;;;5055507;28;20178;-88
2022/05/14 04:20:21;;;;;;;25.90;9.80;;;11.30;87.90;;;;;;5037189;28;20586;-88
2022/05/14 04:22:48;;;;;;;24.83;10.03;;;11.30;87.60;;;;;;5037537;28;20215;-88
2022/05/14 04:25:14;;;;;;;18.13;9.00;;;11.30;87.70;;;;;;5055240;28;20183;-88
2022/05/14 04:27:41;;;;;;;28.20;8.77;;;11.30;87.80;;;;;;5037243;28;20213;-88
2022/05/14 04:30:09;;;;;;;22.43;9.07;;;11.40;87.90;;;;;;5037181;28;20661;-88
2022/05/14 04:32:35;;;;;;;26.87;10.03;;;11.40;87.80;;;;;;5055102;28;20285;-89
2022/05/14 04:35:00;;;;;;;24.27;8.43;;;11.40;87.90;;;;;;5054905;28;20219;-87
2022/05/14 04:37:26;;;;;;;26.20;8.57;;;11.50;88.00;;;;;;5036815;28;20174;-88
2022/05/14 04:39:51;;;;;;;27.77;9.70;;;11.40;88.10;;;;;;5037002;28;20289;-87
2022/05/14 04:42:17;;;;;;;23.30;10.10;;;11.50;88.00;;;;;;5037209;28;20187;-89
2022/05/14 04:44:43;;;;;;;21.70;8.50;;;11.40;88.20;;;;;;5037010;28;20180;-88
2022/05/14 04:47:09;;;;;;;24.43;9.83;;;11.40;88.20;;;;;;5037306;28;20176;-88
2022/05/14 04:49:44;;;;;;;20.33;9.60;;;11.40;88.30;;;;;;5036870;28;20184;-88
2022/05/14 04:52:10;;;;;;;21.30;8.70;;;11.40;88.40;;;;;;5036670;28;20234;-88
2022/05/14 04:54:36;;;;;;;24.97;10.00;;;11.40;88.40;;;;;;5036911;28;20241;-88
2022/05/14 04:57:02;;;;;;;25.87;8.77;;;11.40;88.50;;;;;;5036945;28;20176;-88
2022/05/14 04:59:28;;;;;;;23.60;10.80;;;11.40;88.50;;;;;;5036603;28;20172;-88
2022/05/14 05:04:42;;;;;;;24.53;9.13;;;11.50;88.60;;;;;;5054775;28;20218;-87
2022/05/14 05:07:08;;;;;;;26.67;9.27;;;11.50;88.60;;;;;;5036313;28;20180;-90
2022/05/14 05:09:33;;;;;;;28.30;9.47;;;11.50;88.50;;;;;;5036719;28;20236;-87
2022/05/14 05:11:59;;;;;;;26.53;9.83;;;11.40;88.50;;;;;;5036352;28;20196;-88
2022/05/14 05:14:25;;;;;;;29.33;8.90;;;11.50;88.70;;;;;;5036528;28;20176;-88
2022/05/14 05:16:50;;;;;;;22.20;10.50;;;11.50;88.70;;;;;;5036673;28;20207;-88
2022/05/14 05:19:17;;;;;;;28.30;9.23;;;11.50;88.70;;;;;;5054666;28;20208;-89
2022/05/14 05:21:42;;;;;;;26.03;10.30;;;11.50;88.80;;;;;;5054230;28;20271;-89
2022/05/14 05:24:09;;;;;;;27.50;11.00;;;11.50;88.90;;;;;;5036519;28;20682;-89
2022/05/14 05:26:35;;;;;;;26.43;10.33;;;11.60;88.90;;;;;;5036519;28;20183;-88
2022/05/14 05:29:01;;;;;;;26.73;8.83;;;11.60;88.90;;;;;;5052885;28;20263;-89
2022/05/14 05:31:27;;;;;;;27.37;10.40;;;11.60;88.80;;;;;;5035861;28;20642;-88
2022/05/14 05:33:53;;;;;;;24.57;8.37;;;11.60;88.90;;;;;;5036020;28;20249;-89
2022/05/14 05:36:18;;;;;;;31.20;9.77;;;11.60;88.90;;;;;;5036143;28;20271;-89
2022/05/14 05:38:44;;;;;;;29.50;9.60;;;11.60;88.90;;;;;;5053997;28;20168;-89
2022/05/14 05:41:09;;;;;;;29.13;10.73;;;11.70;88.70;;;;;;5053943;28;20253;-90
2022/05/14 05:43:35;;;;;;;31.33;9.60;;;11.70;88.80;;;;;;5036208;28;20184;-88
2022/05/14 05:46:00;;;;;;;34.57;11.13;;;11.80;88.70;;;;;;5036050;28;20258;-89
2022/05/14 05:48:26;;;;;;;31.07;10.97;;;11.80;88.50;;;;;;5035976;28;20654;-90
2022/05/14 05:50:53;;;;;;;39.80;12.37;;;11.90;88.70;;;;;;5053663;28;20207;-89
2022/05/14 05:53:20;;;;;;;35.47;10.60;;;12.00;88.60;;;;;;5036079;28;20203;-89
2022/05/14 05:58:31;;;;;;;24.63;8.67;;;12.00;88.50;;;;;;5054269;28;20167;-89
2022/05/14 06:00:57;;;;;;;33.60;10.30;;;12.10;88.30;;;;;;5035815;28;20677;-89
2022/05/14 06:03:22;;;;;;;25.03;10.53;;;12.20;88.30;;;;;;5053906;28;20176;-89
2022/05/14 06:05:48;;;;;;;35.60;10.63;;;12.20;88.40;;;;;;5035911;28;20254;-89
2022/05/14 06:08:17;;;;;;;35.90;10.60;;;12.30;88.20;;;;;;5053415;28;20168;-88
2022/05/14 06:10:42;;;;;;;25.73;9.27;;;12.30;87.80;;;;;;5053191;28;20673;-88
2022/05/14 06:13:09;;;;;;;25.07;8.73;;;12.30;87.90;;;;;;5053284;28;20197;-87
2022/05/14 06:15:36;;;;;;;38.93;9.70;;;12.30;87.90;;;;;;5056324;28;20175;-88
2022/05/14 06:18:03;;;;;;;38.20;10.10;;;12.40;87.60;;;;;;5039659;28;20172;-88
2022/05/14 06:20:29;;;;;;;28.23;10.30;;;12.50;87.60;;;;;;5057254;28;20544;-88
2022/05/14 06:22:55;;;;;;;31.17;9.10;;;12.50;87.30;;;;;;5057349;28;20180;-88
2022/05/14 06:25:20;;;;;;;26.50;8.93;;;12.60;87.50;;;;;;5057265;28;20195;-88
2022/05/14 06:27:46;;;;;;;31.33;10.03;;;12.70;87.30;;;;;;5056945;28;20172;-87
2022/05/14 06:30:15;;;;;;;28.83;9.07;;;12.70;87.20;;;;;;5056729;28;20188;-88
2022/05/14 06:32:41;;;;;;;27.57;11.03;;;12.80;87.20;;;;;;5056664;28;20196;-87
2022/05/14 06:35:09;;;;;;;30.07;9.57;;;12.70;86.70;;;;;;5038846;28;20553;-88
2022/05/14 06:37:35;;;;;;;38.70;10.37;;;12.90;87.00;;;;;;5038784;28;20180;-88
2022/05/14 06:40:01;;;;;;;25.93;9.47;;;13.00;86.90;;;;;;5056663;28;20275;-87
2022/05/14 06:42:27;;;;;;;33.73;9.47;;;13.10;86.70;;;;;;5057197;28;20187;-88
2022/05/14 06:44:54;;;;;;;27.63;8.50;;;13.20;86.40;;;;;;5039101;28;20207;-90
2022/05/14 06:47:19;;;;;;;35.90;10.07;;;13.20;86.00;;;;;;5039301;28;20658;-85
2022/05/14 06:49:45;;;;;;;32.77;8.87;;;13.30;85.70;;;;;;5057156;28;20187;-88
2022/05/14 06:52:14;;;;;;;28.50;7.57;;;13.30;85.10;;;;;;5039154;28;20210;-88
2022/05/14 06:54:42;;;;;;;23.27;8.13;;;13.30;84.70;;;;;;5056975;28;20524;-90
2022/05/14 06:57:07;;;;;;;31.60;8.57;;;13.30;84.70;;;;;;5056947;28;20592;-87
2022/05/14 06:59:34;;;;;;;29.70;8.27;;;13.30;84.50;;;;;;5039022;28;20206;-86
2022/05/14 07:02:00;;;;;;;28.30;8.60;;;13.30;84.30;;;;;;5038528;28;20180;-88
2022/05/14 07:07:11;;;;;;;31.57;8.93;;;13.30;83.80;;;;;;5057298;28;20290;-89
2022/05/14 07:09:37;;;;;;;27.13;7.40;;;13.50;84.10;;;;;;5039249;28;20188;-90
2022/05/14 07:12:08;;;;;;;32.53;8.20;;;13.70;82.90;;;;;;5057828;28;20199;-89
2022/05/14 07:14:33;;;;;;;40.13;10.67;;;13.80;82.90;;;;;;5040047;28;20176;-89
2022/05/14 07:16:59;;;;;;;24.90;6.57;;;14.00;83.30;;;;;;5038989;28;20694;-92
2022/05/14 07:19:25;;;;;;;23.17;6.17;;;14.10;81.20;;;;;;5039037;28;20234;-89
2022/05/14 07:21:53;;;;;;;28.37;7.10;;;14.10;81.30;;;;;;5055342;28;20180;-91
2022/05/14 07:24:29;;;;;;;31.07;6.53;;;14.30;81.20;;;;;;5038227;28;20663;-89
2022/05/14 07:26:58;;;;;;;24.20;6.30;;;14.30;81.00;;;;;;5037170;28;20175;-90
2022/05/14 07:29:25;;;;;;;32.33;7.17;;;14.30;80.70;;;;;;5056224;28;20261;-89
2022/05/14 07:31:52;;;;;;;33.60;7.40;;;14.40;80.40;;;;;;5054640;28;20207;-89
2022/05/14 07:34:18;;;;;;;31.13;7.27;;;14.70;80.60;;;;;;5055884;28;20542;-89
2022/05/14 07:36:50;;;;;;;25.17;5.97;;;14.80;79.90;;;;;;5037955;28;20207;-88
2022/05/14 07:39:18;;;;;;;22.20;5.50;;;14.50;77.80;;;;;;5037765;28;20534;-88
2022/05/14 07:41:46;;;;;;;19.77;5.63;;;14.50;78.30;;;;;;5037784;28;20620;-87
2022/05/14 07:44:15;;;;;;;23.80;5.37;;;14.80;79.20;;;;;;5037700;28;20619;-88
2022/05/14 07:46:41;;;;;;;25.17;4.97;;;14.80;76.50;;;;;;5037790;28;20172;-89
2022/05/14 07:49:10;;;;;;;27.60;5.63;;;14.90;77.30;;;;;;5037587;28;20611;-88
2022/05/14 07:51:36;;;;;;;22.47;6.23;;;15.00;76.30;;;;;;5037309;28;20212;-88
2022/05/14 07:54:03;;;;;;;38.47;6.83;;;15.10;76.50;;;;;;5037600;28;20200;-88
2022/05/14 07:56:32;;;;;;;22.47;5.73;;;15.20;76.60;;;;;;5054192;28;20211;-88
2022/05/14 07:58:58;;;;;;;24.80;5.70;;;15.30;77.00;;;;;;5037408;28;20263;-88
2022/05/14 08:01:24;;;;;;;21.00;5.07;;;15.30;74.90;;;;;;5037233;28;20234;-89
2022/05/14 08:03:50;;;;;;;21.83;5.37;;;15.30;74.30;;;;;;5037782;28;20279;-88
2022/05/14 08:06:17;;;;;;;22.37;5.43;;;15.20;74.30;;;;;;5037324;28;20646;-89
2022/05/14 08:08:43;;;;;;;23.50;5.53;;;15.20;72.80;;;;;;5037267;28;20176;-89
2022/05/14 08:11:09;;;;;;;21.70;5.07;;;15.30;73.10;;;;;;5054914;28;20195;-89
2022/05/14 08:13:35;;;;;;;19.20;4.83;;;15.40;72.70;;;;;;5037196;28;20218;-89
2022/05/14 08:16:02;;;;;;;18.10;4.83;;;15.70;73.20;;;;;;5037127;28;20172;-88
2022/05/14 08:18:29;;;;;;;29.40;6.68;;;15.90;72.60;;;;;;5036969;28;20176;-87
2022/05/14 08:20:54;;;;;;;20.33;5.70;;;15.90;72.70;;;;;;5037114;28;20192;-89
2022/05/14 08:26:05;;;;;;;23.00;5.85;;;16.30;71.30;;;;;;5055331;28;20278;-89
2022/05/14 08:28:31;;;;;;;21.77;4.95;;;16.10;70.70;;;;;;5036789;28;20183;-89
2022/05/14 08:30:57;;;;;;;13.35;4.22;;;16.20;71.00;;;;;;5036578;28;20204;-88
2022/05/14 08:33:23;;;;;;;13.82;4.70;;;16.20;69.30;;;;;;5036587;28;20289;-88
2022/05/14 08:35:48;;;;;;;14.68;3.95;;;15.80;69.60;;;;;;5036719;28;20176;-87
2022/05/14 08:38:16;;;;;;;19.48;5.82;;;16.10;69.50;;;;;;5054391;28;20221;-88
2022/05/14 08:40:44;;;;;;;15.10;4.30;;;16.30;70.70;;;;;;5036371;28;20192;-87
2022/05/14 08:43:17;;;;;;;20.52;4.65;;;16.50;70.30;;;;;;5036936;28;20176;-87
2022/05/14 08:45:43;;;;;;;16.95;4.47;;;16.20;69.50;;;;;;5053085;28;20179;-88
2022/05/14 08:48:23;;;;;;;22.17;5.05;;;16.20;69.10;;;;;;5036421;28;20171;-87
2022/05/14 08:51:07;;;;;;;22.50;4.38;;;16.20;69.10;;;;;;5036558;28;20211;-87
2022/05/14 08:53:35;;;;;;;16.20;4.57;;;16.10;68.20;;;;;;5054250;28;20188;-88
2022/05/14 08:56:25;;;;;;;16.75;4.65;;;16.40;69.20;;;;;;5036295;28;20176;-88
2022/05/14 08:59:20;;;;;;;16.38;4.32;;;16.30;67.60;;;;;;5036302;28;20164;-88
2022/05/14 09:01:47;;;;;;;18.10;4.63;;;16.10;70.20;;;;;;5053793;28;20199;-87
2022/05/14 09:04:17;;;;;;;15.35;3.70;;;16.00;70.40;;;;;;5036654;28;20175;-87
2022/05/14 09:06:43;;;;;;;16.35;4.32;;;16.20;68.70;;;;;;5036563;28;20635;-89
2022/05/14 09:09:09;;;;;;;17.83;4.70;;;16.40;68.60;;;;;;5036376;28;20226;-88
2022/05/14 09:11:56;;;;;;;20.58;4.82;;;16.20;68.70;;;;;;5053320;28;20246;-88
2022/05/14 09:14:30;;;;;;;18.02;4.78;;;16.50;69.20;;;;;;5036205;28;20175;-88
2022/05/14 09:17:00;;;;;;;15.27;4.85;;;16.60;69.20;;;;;;5036673;28;20164;-87
2022/05/14 09:19:36;;;;;;;19.20;5.05;;;16.10;68.50;;;;;;5052530;28;20596;-88
2022/05/14 09:22:31;;;;;;;17.70;4.07;;;16.40;67.80;;;;;;5035950;28;20629;-88
2022/05/14 09:25:18;;;;;;;15.75;4.45;;;16.20;66.70;;;;;;5027878;28;20188;-88
2022/05/14 09:28:10;;;;;;;13.23;4.10;;;16.10;67.70;;;;;;5035815;28;20176;-87
2022/05/14 09:30:54;;;;;;;16.60;4.95;;;16.70;65.90;;;;;;5046553;28;20220;-88
2022/05/14 09:33:34;;;;;;;16.30;4.22;;;16.50;65.30;;;;;;5053524;28;20210;-88
2022/05/14 09:36:00;;;;;;;20.80;4.65;;;16.50;65.90;;;;;;5035755;28;20729;-89
2022/05/14 09:38:28;;;;;;;19.67;4.78;;;16.10;66.30;;;;;;5053449;28;20174;-89
2022/05/14 09:40:55;;;;;;;17.67;4.95;;;16.30;68.00;;;;;;5053427;28;20190;-89
2022/05/14 09:43:30;;;;;;;23.88;3.67;;;16.70;67.60;;;;;;5035704;28;20242;-88
2022/05/14 09:46:07;;;;;;;11.55;3.67;;;17.10;67.30;;;;;;5052658;28;20258;-89
2022/05/14 09:48:43;;;;;;;16.77;4.45;;;17.00;64.20;;;;;;5035699;28;20172;-89
2022/05/14 09:51:09;;;;;;;18.13;4.25;;;17.00;64.10;;;;;;5053563;28;20263;-89
2022/05/14 09:53:43;;;;;;;12.13;3.60;;;16.80;64.50;;;;;;5036257;28;20682;-89
2022/05/14 09:56:46;;;;;;;18.90;4.93;;;17.50;65.40;;;;;;5035905;28;20169;-89
2022/05/14 09:59:41;;;;;;;17.08;4.45;;;17.20;66.00;;;;;;5053286;28;20171;-89
2022/05/14 10:02:17;;;;;;;24.92;5.43;;;17.60;67.40;;;;;;5022899;28;20192;-87
2022/05/14 10:05:07;;;;;;;18.08;4.50;;;17.30;66.60;;;;;;5035287;28;20634;-88
2022/05/14 10:07:39;;;;;;;18.98;4.20;;;16.70;66.70;;;;;;5053756;28;20210;-88
2022/05/14 10:10:23;;;;;;;18.83;4.90;;;16.70;68.40;;;;;;5035908;28;20215;-88
2022/05/14 10:13:02;;;;;;;19.58;5.05;;;17.00;68.20;;;;;;5052576;28;20199;-88
2022/05/14 10:15:58;;;;;;;19.77;6.10;;;17.50;68.10;;;;;;5035693;28;20178;-88
2022/05/14 10:18:55;;;;;;;21.65;4.93;;;17.00;66.00;;;;;;5053273;28;20180;-88
2022/05/14 10:21:51;;;;;;;21.77;6.38;;;16.60;68.30;;;;;;5035692;28;20203;-88
2022/05/14 10:27:42;;;;;;;19.45;5.55;;;17.20;67.10;;;;;;5053095;28;20210;-89
2022/05/14 10:30:17;;;;;;;20.40;4.85;;;17.70;66.70;;;;;;5051933;28;20192;-88
2022/05/14 10:32:45;;;;;;;21.92;5.90;;;17.60;64.90;;;;;;5051991;28;20567;-86
2022/05/14 10:35:19;;;;;;;15.82;4.25;;;17.50;65.80;;;;;;5035465;28;20176;-86
2022/05/14 10:37:53;;;;;;;25.13;5.55;;;17.50;66.70;;;;;;5035321;28;20263;-87
2022/05/14 10:40:21;;;;;;;22.95;5.38;;;17.90;66.50;;;;;;5053271;28;20233;-87
2022/05/14 10:42:53;;;;;;;19.45;5.28;;;17.80;66.40;;;;;;5051798;28;20190;-88
2022/05/14 10:45:26;;;;;;;18.48;4.68;;;17.70;67.10;;;;;;5051883;28;20176;-88
2022/05/14 10:48:22;;;;;;;17.90;4.50;;;18.00;65.10;;;;;;5035771;28;20174;-88
2022/05/14 10:50:47;;;;;;;16.67;4.45;;;17.70;64.80;;;;;;5008731;28;20226;-89
2022/05/14 10:53:13;;;;;;;22.02;6.40;;;17.10;65.70;;;;;;5052711;28;20291;-88
2022/05/14 10:55:59;;;;;;;16.55;4.70;;;16.50;66.00;;;;;;5052885;28;20535;-88
2022/05/14 10:58:45;;;;;;;19.75;4.15;;;16.60;68.00;;;;;;5051635;28;20164;-87
2022/05/14 11:01:30;;;;;;;21.73;5.72;;;17.30;65.70;;;;;;5053268;28;20707;-88
2022/05/14 11:04:23;;;;;;;24.73;5.60;;;17.10;67.60;;;;;;5039047;28;20183;-89
2022/05/14 11:06:56;;;;;;;25.73;5.40;;;16.80;67.80;;;;;;5031072;28;20184;-89
2022/05/14 11:09:30;;;;;;;26.92;5.90;;;17.20;67.80;;;;;;5056985;28;20248;-88
2022/05/14 11:12:02;;;;;;;24.08;6.32;;;17.40;67.30;;;;;;5056408;28;20170;-87
2022/05/14 11:14:43;;;;;;;16.33;4.78;;;17.70;66.70;;;;;;5038234;28;20661;-88
2022/05/14 11:17:27;;;;;;;20.10;5.00;;;17.30;65.10;;;;;;5038530;28;20175;-88
2022/05/14 11:20:13;;;;;;;20.52;5.10;;;17.20;65.80;;;;;;5056016;28;20196;-87
2022/05/14 11:22:45;;;;;;;21.88;5.28;;;16.50;66.80;;;;;;5037839;28;20192;-88
2022/05/14 11:25:25;;;;;;;25.20;4.63;;;16.80;68.50;;;;;;5038540;28;20180;-87
2022/05/14 11:27:59;;;;;;;14.70;4.18;;;17.20;67.20;;;;;;5054779;28;20168;-86
2022/05/14 11:30:50;;;;;;;12.57;4.05;;;17.00;66.10;;;;;;5054787;28;20265;-88
2022/05/14 11:33:26;;;;;;;17.73;4.00;;;16.70;67.40;;;;;;5037889;28;20204;-87
2022/05/14 11:35:58;;;;;;;14.55;4.22;;;16.90;67.80;;;;;;5056429;28;20610;-89
2022/05/14 11:38:26;;;;;;;16.48;4.35;;;17.20;64.90;;;;;;5039498;28;20176;-88
2022/05/14 11:41:02;;;;;;;20.50;5.03;;;17.00;64.20;;;;;;5054893;28;20266;-89
2022/05/14 11:43:43;;;;;;;23.30;4.28;;;17.10;64.90;;;;;;5055107;28;20553;-89
2022/05/14 11:46:20;;;;;;;19.45;4.40;;;17.30;64.70;;;;;;5054887;28;20164;-88
2022/05/14 11:49:06;;;;;;;17.40;4.97;;;17.20;64.40;;;;;;5056256;28;20501;-88
2022/05/14 11:51:47;;;;;;;19.73;5.07;;;17.40;65.20;;;;;;5037750;28;20218;-88
2022/05/14 11:54:17;;;;;;;24.17;5.88;;;17.80;64.90;;;;;;5037699;28;20171;-89
2022/05/14 11:57:11;;;;;;;17.65;5.07;;;17.90;63.90;;;;;;5037904;28;20168;-89
2022/05/14 11:59:43;;;;;;;16.70;5.05;;;18.20;62.80;;;;;;5037493;28;20630;-91
2022/05/14 12:02:32;;;;;;;18.92;4.80;;;18.10;63.40;;;;;;5037295;28;20245;-90
2022/05/14 12:04:59;;;;;;;16.90;4.95;;;17.80;64.10;;;;;;5038157;28;20222;-90
2022/05/14 12:07:37;;;;;;;15.00;4.32;;;18.00;63.20;;;;;;5037195;28;20180;-90
2022/05/14 12:10:27;;;;;;;14.35;4.00;;;18.30;63.20;;;;;;5053964;28;20219;-90
2022/05/14 12:12:59;;;;;;;15.27;4.25;;;18.10;61.70;;;;;;5055022;28;20234;-90
2022/05/14 12:15:25;;;;;;;18.13;5.05;;;18.00;62.20;;;;;;5055123;28;20259;-90
2022/05/14 12:17:56;;;;;;;19.02;5.55;;;17.80;63.90;;;;;;5037705;28;20179;-91
2022/05/14 12:20:25;;;;;;;16.50;4.57;;;18.30;64.00;;;;;;5037178;28;20572;-90
2022/05/14 12:22:57;;;;;;;14.00;4.60;;;18.40;62.80;;;;;;5055386;28;20646;-90
2022/05/14 12:25:36;;;;;;;20.17;4.95;;;18.50;62.70;;;;;;5054421;28;20175;-91
2022/05/14 12:28:02;;;;;;;20.52;4.80;;;18.70;60.90;;;;;;5054439;28;20172;-90
2022/05/14 12:33:15;;;;;;;19.85;4.72;;;19.10;61.20;;;;;;5054747;28;20684;-89
2022/05/14 12:35:49;;;;;;;16.17;4.20;;;19.30;58.90;;;;;;5036538;28;20234;-88
2022/05/14 12:38:28;;;;;;;15.48;4.15;;;19.20;59.60;;;;;;5054541;28;20152;-87
2022/05/14 12:40:54;;;;;;;17.73;4.50;;;18.50;59.70;;;;;;5036987;28;20200;-90
2022/05/14 12:43:19;;;;;;;28.63;6.15;;;18.60;60.50;;;;;;5037403;28;20211;-91
2022/05/14 12:45:57;;;;;;;16.45;4.50;;;18.10;61.30;;;;;;5037354;28;20262;-90
2022/05/14 12:48:23;;;;;;;13.45;3.65;;;18.80;62.20;;;;;;5036509;28;20226;-90
2022/05/14 12:50:54;;;;;;;11.32;3.70;;;18.80;61.20;;;;;;5036526;28;20215;-91
2022/05/14 12:53:31;;;;;;;12.32;3.63;;;19.10;60.20;;;;;;5054083;28;20750;-90
2022/05/14 12:55:58;;;;;;;20.58;5.13;;;19.00;60.70;;;;;;5036537;28;20184;-90
2022/05/14 12:58:24;;;;;;;14.32;4.25;;;19.10;60.30;;;;;;5036425;28;20179;-91
2022/05/14 13:00:52;;;;;;;13.48;4.00;;;19.60;58.50;;;;;;5036528;28;20196;-91
2022/05/14 13:03:24;;;;;;;11.18;3.67;;;19.50;59.30;;;;;;5036349;28;20245;-90
2022/05/14 13:06:00;;;;;;;15.05;4.07;;;19.30;57.20;;;;;;5053695;28;20557;-91
2022/05/14 13:08:27;;;;;;;13.73;2.95;;;19.30;56.70;;;;;;5037216;28;20618;-91
2022/05/14 13:10:56;;;;;;;12.63;3.45;;;19.50;55.30;;;;;;5036603;28;20204;-89